Time;durP1;ratioP1;P1;durP2;ratioP2;P2;SDS_P1;SDS_P2;PMS_P1;PMS_P2;Temp;Humidity;BMP_temperature;BMP_pressure;BME280_temperature;BME280_humidity;BME280_pressure;Samples;Min_cycle;Max_cycle;Signal;HPM_P1;HPM_P2
2021/05/07 00:02:06;;;;;;;3.27;1.60;;;8.00;82.10;;;;;;5064537;28;20298;-66
2021/05/07 00:04:32;;;;;;;4.43;1.50;;;8.00;82.60;;;;;;5055893;28;20285;-67
2021/05/07 00:06:59;;;;;;;1.47;1.03;;;7.90;82.90;;;;;;5045454;28;20201;-67
2021/05/07 00:09:27;;;;;;;2.70;1.10;;;8.00;83.30;;;;;;5058736;28;20278;-67
2021/05/07 00:11:54;;;;;;;1.53;0.93;;;8.00;83.60;;;;;;5055364;28;20196;-67
2021/05/07 00:14:20;;;;;;;2.13;1.10;;;7.90;84.00;;;;;;5048491;28;20195;-67
2021/05/07 00:16:47;;;;;;;1.00;0.90;;;7.90;84.30;;;;;;5063721;28;20201;-67
2021/05/07 00:19:14;;;;;;;1.00;1.00;;;7.90;84.60;;;;;;5050698;28;20626;-67
2021/05/07 00:21:41;;;;;;;2.43;1.10;;;7.90;84.90;;;;;;5053249;28;20196;-67
2021/05/07 00:24:08;;;;;;;1.57;0.90;;;7.90;85.20;;;;;;5047014;28;20204;-67
2021/05/07 00:26:34;;;;;;;0.93;0.80;;;7.90;85.60;;;;;;5054988;28;20222;-67
2021/05/07 00:29:01;;;;;;;1.03;0.90;;;7.80;85.80;;;;;;5055594;28;20765;-68
2021/05/07 00:31:28;;;;;;;1.27;1.10;;;7.80;86.20;;;;;;5059919;28;20197;-67
2021/05/07 00:33:54;;;;;;;1.30;1.10;;;7.80;86.60;;;;;;5055306;28;20228;-68
2021/05/07 00:36:25;;;;;;;1.20;0.90;;;7.80;86.80;;;;;;5062618;28;20208;-68
2021/05/07 00:38:51;;;;;;;1.00;0.90;;;7.80;87.80;;;;;;5058854;28;20496;-67
2021/05/07 00:41:18;;;;;;;4.00;1.73;;;7.80;87.40;;;;;;5063540;28;20531;-67
2021/05/07 00:43:46;;;;;;;3.83;2.07;;;7.80;88.10;;;;;;5057490;28;20201;-67
2021/05/07 00:46:12;;;;;;;7.50;2.33;;;7.80;89.00;;;;;;5064022;28;20558;-67
2021/05/07 00:48:40;;;;;;;8.83;3.40;;;7.70;89.80;;;;;;5059886;28;20265;-67
2021/05/07 00:51:06;;;;;;;5.30;2.40;;;7.70;90.20;;;;;;5055819;28;20189;-67
2021/05/07 00:53:34;;;;;;;5.40;2.70;;;7.60;90.40;;;;;;5057592;28;20256;-67
2021/05/07 00:56:00;;;;;;;2.73;1.90;;;7.50;90.70;;;;;;5046320;28;20771;-67
2021/05/07 00:58:27;;;;;;;4.43;2.30;;;7.50;90.90;;;;;;5057130;28;20292;-67
2021/05/07 01:00:54;;;;;;;5.50;2.30;;;7.50;91.10;;;;;;5060004;28;20199;-67
2021/05/07 01:03:23;;;;;;;4.77;2.27;;;7.50;91.40;;;;;;5060977;28;20203;-67
2021/05/07 01:05:52;;;;;;;2.63;2.00;;;7.40;91.60;;;;;;5048322;28;20193;-67
2021/05/07 01:08:20;;;;;;;3.37;2.00;;;7.40;91.90;;;;;;5056609;28;20220;-68
2021/05/07 01:10:53;;;;;;;4.90;2.20;;;7.40;92.20;;;;;;5056622;28;20272;-67
2021/05/07 01:13:19;;;;;;;2.93;1.63;;;7.30;92.40;;;;;;5054300;28;20225;-67
2021/05/07 01:15:49;;;;;;;4.90;1.90;;;7.30;92.60;;;;;;5052702;28;20206;-66
2021/05/07 01:18:18;;;;;;;3.20;1.83;;;7.30;92.90;;;;;;5065520;28;20204;-67
2021/05/07 01:20:47;;;;;;;2.83;1.50;;;7.30;93.20;;;;;;5058112;28;20567;-66
2021/05/07 01:23:13;;;;;;;4.33;1.90;;;7.20;93.40;;;;;;5054692;28;20244;-66
2021/05/07 01:25:42;;;;;;;2.27;1.60;;;7.80;93.90;;;;;;5051851;28;20637;-66
2021/05/07 01:28:10;;;;;;;4.53;1.70;;;7.20;93.80;;;;;;5050630;28;20229;-67
2021/05/07 01:30:38;;;;;;;4.17;1.70;;;7.10;94.10;;;;;;5061627;28;20207;-67
2021/05/07 01:33:05;;;;;;;4.23;1.67;;;7.10;94.40;;;;;;5057405;28;20204;-66
2021/05/07 01:35:34;;;;;;;2.87;1.60;;;7.10;94.60;;;;;;5053400;28;20211;-66
2021/05/07 01:38:03;;;;;;;1.87;1.30;;;7.10;94.80;;;;;;5066669;28;20253;-67
2021/05/07 01:40:32;;;;;;;1.77;1.67;;;7.00;95.00;;;;;;5060236;28;20973;-67
2021/05/07 01:42:59;;;;;;;3.67;1.60;;;7.00;95.20;;;;;;5063980;28;20244;-66
2021/05/07 01:45:27;;;;;;;2.87;1.47;;;7.00;95.50;;;;;;5059610;28;20297;-66
2021/05/07 01:47:54;;;;;;;1.83;1.30;;;7.00;95.80;;;;;;5062812;28;20619;-67
2021/05/07 01:50:23;;;;;;;1.83;1.30;;;7.00;95.90;;;;;;5040986;28;20226;-67
2021/05/07 01:52:50;;;;;;;2.70;1.50;;;6.90;96.10;;;;;;5063680;28;20210;-67
2021/05/07 01:55:19;;;;;;;3.33;1.63;;;6.90;96.30;;;;;;5051530;28;20236;-67
2021/05/07 01:57:46;;;;;;;4.13;1.47;;;7.00;96.50;;;;;;5043479;28;20212;-68
2021/05/07 02:00:16;;;;;;;2.23;1.60;;;6.90;96.60;;;;;;5046254;28;20329;-68
2021/05/07 02:02:45;;;;;;;2.97;1.53;;;6.90;96.80;;;;;;5051404;28;20286;-66
2021/05/07 02:05:22;;;;;;;1.73;1.50;;;6.90;97.00;;;;;;5068862;28;20264;-67
2021/05/07 02:07:50;;;;;;;4.17;1.90;;;6.90;97.20;;;;;;5047979;28;20232;-67
2021/05/07 02:10:20;;;;;;;3.40;1.90;;;6.90;97.50;;;;;;5058804;28;20202;-66
2021/05/07 02:12:47;;;;;;;2.57;1.70;;;6.80;97.70;;;;;;5045266;28;20197;-66
2021/05/07 02:15:16;;;;;;;5.20;2.10;;;6.80;98.00;;;;;;5063033;28;20215;-66
2021/05/07 02:17:45;;;;;;;3.57;2.27;;;6.80;98.20;;;;;;5049734;28;20569;-67
2021/05/07 02:20:13;;;;;;;3.90;1.93;;;6.70;98.40;;;;;;5045119;28;20208;-68
2021/05/07 02:22:40;;;;;;;4.17;2.10;;;6.70;98.50;;;;;;5053299;28;20239;-67
2021/05/07 02:25:09;;;;;;;6.27;2.47;;;6.80;98.70;;;;;;5064564;28;20210;-67
2021/05/07 02:27:36;;;;;;;3.93;2.20;;;6.80;98.90;;;;;;5052979;28;20205;-67
2021/05/07 02:30:04;;;;;;;4.60;2.30;;;6.70;98.90;;;;;;5053571;28;20482;-67
2021/05/07 02:32:31;;;;;;;4.83;2.43;;;6.80;99.10;;;;;;5054989;28;20200;-67
2021/05/07 02:34:58;;;;;;;4.93;2.17;;;6.80;99.20;;;;;;5054731;28;20343;-67
2021/05/07 02:37:25;;;;;;;3.67;1.93;;;6.70;99.20;;;;;;5060232;28;20828;-67
2021/05/07 02:39:51;;;;;;;4.13;2.10;;;6.70;99.40;;;;;;5062935;28;20200;-67
2021/05/07 02:42:19;;;;;;;3.33;1.80;;;6.70;99.90;;;;;;5057361;28;20201;-67
2021/05/07 02:44:46;;;;;;;4.23;2.00;;;6.70;99.70;;;;;;5062222;28;20212;-67
2021/05/07 02:47:13;;;;;;;3.23;1.70;;;6.70;99.80;;;;;;5057785;28;20513;-66
2021/05/07 02:49:40;;;;;;;5.00;1.93;;;6.80;99.90;;;;;;5051212;28;20318;-67
2021/05/07 02:52:07;;;;;;;4.07;1.50;;;6.70;99.90;;;;;;5055323;28;20201;-67
2021/05/07 02:54:34;;;;;;;2.90;1.80;;;6.70;99.90;;;;;;5060073;28;20198;-67
2021/05/07 02:57:01;;;;;;;2.20;1.40;;;6.60;99.90;;;;;;5051606;28;20194;-66
2021/05/07 02:59:29;;;;;;;1.40;1.30;;;6.70;99.90;;;;;;5059964;28;20204;-67
2021/05/07 03:01:56;;;;;;;2.30;1.10;;;6.70;99.90;;;;;;5047209;28;20202;-67
2021/05/07 03:04:23;;;;;;;2.93;1.30;;;6.70;99.90;;;;;;5045241;28;20200;-67
2021/05/07 03:06:50;;;;;;;1.53;1.23;;;6.70;99.90;;;;;;5051881;28;20272;-67
2021/05/07 03:09:18;;;;;;;1.40;1.23;;;6.70;99.90;;;;;;5050260;28;20224;-67
2021/05/07 03:11:45;;;;;;;1.23;1.13;;;6.60;99.90;;;;;;5045654;28;20205;-67
2021/05/07 03:14:12;;;;;;;2.27;1.47;;;6.70;99.90;;;;;;5049176;28;20671;-66
2021/05/07 03:16:40;;;;;;;3.50;1.40;;;6.60;99.90;;;;;;5051268;28;20721;-67
2021/05/07 03:19:07;;;;;;;3.60;1.40;;;6.70;99.90;;;;;;5056868;28;20197;-67
2021/05/07 03:21:34;;;;;;;2.00;1.37;;;6.70;99.90;;;;;;5061328;28;20216;-66
2021/05/07 03:24:01;;;;;;;2.27;1.27;;;6.70;99.90;;;;;;5055489;28;20904;-67
2021/05/07 03:26:27;;;;;;;2.13;1.30;;;6.60;99.90;;;;;;5052085;28;20282;-67
2021/05/07 03:28:54;;;;;;;1.57;1.37;;;6.70;99.90;;;;;;5043973;28;20656;-67
2021/05/07 03:31:20;;;;;;;1.37;1.00;;;6.70;99.90;;;;;;5045604;28;20627;-67
2021/05/07 03:33:47;;;;;;;1.23;1.10;;;6.60;99.90;;;;;;5055721;28;20201;-67
2021/05/07 03:36:15;;;;;;;1.47;1.20;;;6.60;99.90;;;;;;5077788;28;20193;-67
2021/05/07 03:38:42;;;;;;;2.03;1.47;;;6.70;99.90;;;;;;5065175;28;20189;-67
2021/05/07 03:41:10;;;;;;;2.43;1.60;;;6.60;99.90;;;;;;5065043;28;20388;-67
2021/05/07 03:43:37;;;;;;;3.57;1.60;;;7.10;99.90;;;;;;5051299;28;20248;-67
2021/05/07 03:46:04;;;;;;;1.53;1.20;;;6.70;99.90;;;;;;5062604;28;20232;-68
2021/05/07 03:48:30;;;;;;;1.63;1.17;;;6.70;99.90;;;;;;5059075;28;20237;-66
2021/05/07 03:50:58;;;;;;;1.57;1.33;;;6.70;99.90;;;;;;5056484;28;20297;-66
2021/05/07 03:53:25;;;;;;;1.43;1.33;;;6.70;99.90;;;;;;5054232;28;20273;-68
2021/05/07 03:55:52;;;;;;;1.90;1.47;;;6.80;99.90;;;;;;5059621;28;20197;-68
2021/05/07 03:58:19;;;;;;;3.13;1.33;;;6.80;99.90;;;;;;5060068;28;20611;-68
2021/05/07 04:00:45;;;;;;;3.30;1.60;;;6.80;99.90;;;;;;5060970;28;20203;-68
2021/05/07 04:03:12;;;;;;;2.77;1.47;;;6.90;99.90;;;;;;5050594;28;20198;-68
2021/05/07 04:05:39;;;;;;;3.97;1.30;;;6.90;99.90;;;;;;5063440;28;20206;-68
2021/05/07 04:08:10;;;;;;;2.30;1.50;;;7.00;99.90;;;;;;5050607;28;20199;-67
2021/05/07 04:10:43;;;;;;;4.60;1.40;;;7.00;99.90;;;;;;5051745;28;20247;-67
2021/05/07 04:15:54;;;;;;;3.23;1.60;;;7.10;99.90;;;;;;5057816;28;20200;-67
2021/05/07 04:18:21;;;;;;;2.77;1.50;;;7.20;99.90;;;;;;5063819;28;20236;-67
2021/05/07 04:20:47;;;;;;;3.67;1.70;;;7.20;99.90;;;;;;5057494;28;20194;-67
2021/05/07 04:23:14;;;;;;;2.50;1.30;;;7.20;99.90;;;;;;5051563;28;20229;-67
2021/05/07 04:25:41;;;;;;;2.73;1.50;;;7.30;99.90;;;;;;5064285;28;20580;-67
2021/05/07 04:28:11;;;;;;;2.80;1.70;;;7.30;99.90;;;;;;5055448;28;20259;-67
2021/05/07 04:30:37;;;;;;;3.63;2.10;;;7.30;99.90;;;;;;5055020;28;20297;-67
2021/05/07 04:33:04;;;;;;;3.73;2.03;;;7.40;99.90;;;;;;5059408;28;20248;-67
2021/05/07 04:35:31;;;;;;;3.33;2.40;;;7.40;99.90;;;;;;5053802;28;20282;-67
2021/05/07 04:37:57;;;;;;;4.60;2.40;;;7.40;99.90;;;;;;5064414;28;20211;-67
2021/05/07 04:40:24;;;;;;;5.80;2.73;;;7.50;99.90;;;;;;5058669;28;20197;-67
2021/05/07 04:42:51;;;;;;;7.47;2.90;;;7.50;99.90;;;;;;5052097;28;20228;-67
2021/05/07 04:45:18;;;;;;;5.10;2.87;;;7.60;99.90;;;;;;5058854;28;20288;-66
2021/05/07 04:47:44;;;;;;;3.87;2.43;;;7.60;99.90;;;;;;5043541;28;20304;-66
2021/05/07 04:50:13;;;;;;;7.00;2.80;;;7.70;99.90;;;;;;5041419;28;22424;-67
2021/05/07 04:52:40;;;;;;;6.30;2.70;;;7.90;99.90;;;;;;5063384;28;20654;-67
2021/05/07 04:55:08;;;;;;;5.83;2.63;;;7.80;99.90;;;;;;5056025;28;20576;-67
2021/05/07 04:57:34;;;;;;;7.93;3.83;;;7.90;99.90;;;;;;5061904;28;20274;-66
2021/05/07 05:00:02;;;;;;;7.47;3.27;;;8.00;99.90;;;;;;5054724;28;20219;-67
2021/05/07 05:02:29;;;;;;;5.27;3.00;;;8.10;99.90;;;;;;5056316;28;20210;-68
2021/05/07 05:04:57;;;;;;;7.50;3.30;;;8.20;99.90;;;;;;5050317;28;20208;-67
2021/05/07 05:07:23;;;;;;;7.30;3.70;;;8.40;99.90;;;;;;5060449;28;20294;-67
2021/05/07 05:09:50;;;;;;;6.47;3.40;;;8.50;99.90;;;;;;5052586;28;20248;-67
2021/05/07 05:12:16;;;;;;;7.87;3.47;;;8.60;99.90;;;;;;5056356;28;20295;-67
2021/05/07 05:14:43;;;;;;;6.13;3.10;;;8.70;99.90;;;;;;5041535;28;20218;-67
2021/05/07 05:17:10;;;;;;;7.83;3.03;;;8.80;99.90;;;;;;5054971;28;20255;-68
2021/05/07 05:19:37;;;;;;;4.50;2.50;;;8.80;99.90;;;;;;5046319;28;20191;-67
2021/05/07 05:22:03;;;;;;;6.23;2.60;;;8.90;99.90;;;;;;5053044;28;20197;-67
2021/05/07 05:24:30;;;;;;;4.23;2.53;;;9.00;99.90;;;;;;5048279;28;20209;-68
2021/05/07 05:26:56;;;;;;;7.23;3.17;;;9.20;99.90;;;;;;5063452;28;20208;-67
2021/05/07 05:29:23;;;;;;;5.63;2.63;;;9.30;99.90;;;;;;5049695;28;20695;-67
2021/05/07 05:31:50;;;;;;;4.33;2.67;;;9.50;99.90;;;;;;5053024;28;20303;-68
2021/05/07 05:34:17;;;;;;;3.37;2.43;;;9.60;99.70;;;;;;5061020;28;20632;-67
2021/05/07 05:36:46;;;;;;;3.13;2.27;;;9.80;99.40;;;;;;5058866;28;20711;-67
2021/05/07 05:39:15;;;;;;;4.70;2.20;;;10.00;98.90;;;;;;5061565;28;20190;-67
2021/05/07 05:41:41;;;;;;;3.80;2.00;;;10.20;98.20;;;;;;5064710;28;20193;-67
2021/05/07 05:44:09;;;;;;;4.10;2.30;;;10.40;97.90;;;;;;5062855;28;20279;-67
2021/05/07 05:46:37;;;;;;;4.47;2.13;;;10.60;97.50;;;;;;5062394;28;20441;-67
2021/05/07 05:49:04;;;;;;;6.00;2.20;;;10.90;97.00;;;;;;5059925;28;20266;-68
2021/05/07 05:51:31;;;;;;;3.07;1.77;;;11.50;96.10;;;;;;5049568;28;20233;-68
2021/05/07 05:53:58;;;;;;;4.23;2.00;;;12.50;94.40;;;;;;5061342;28;20221;-67
2021/05/07 05:56:25;;;;;;;5.03;2.20;;;13.20;92.50;;;;;;5059219;28;20236;-68
2021/05/07 05:58:51;;;;;;;2.77;1.80;;;14.10;90.60;;;;;;5066558;28;20695;-67
2021/05/07 06:01:18;;;;;;;3.53;2.27;;;15.20;87.30;;;;;;5053729;28;20210;-67
2021/05/07 06:03:44;;;;;;;2.67;1.93;;;16.10;81.70;;;;;;5065828;28;20210;-68
2021/05/07 06:06:11;;;;;;;2.30;1.70;;;17.10;77.30;;;;;;5045238;28;20235;-67
2021/05/07 06:08:38;;;;;;;2.63;1.70;;;18.30;72.70;;;;;;5051262;28;20256;-67
2021/05/07 06:11:04;;;;;;;2.07;1.50;;;19.40;68.00;;;;;;5054174;28;20683;-68
2021/05/07 06:13:31;;;;;;;2.47;1.60;;;20.40;64.10;;;;;;5040500;28;21058;-67
2021/05/07 06:15:57;;;;;;;2.53;1.70;;;21.20;61.00;;;;;;5047864;28;20277;-67
2021/05/07 06:18:24;;;;;;;4.10;1.80;;;22.00;58.70;;;;;;5045331;28;20519;-67
2021/05/07 06:20:51;;;;;;;3.20;1.50;;;22.80;56.80;;;;;;5040479;28;20366;-67
2021/05/07 06:23:18;;;;;;;4.17;1.90;;;23.70;55.00;;;;;;5042803;28;20198;-67
2021/05/07 06:25:45;;;;;;;2.67;1.57;;;24.60;53.10;;;;;;5052170;28;20244;-67
2021/05/07 06:28:12;;;;;;;1.83;1.63;;;25.40;51.10;;;;;;5035942;28;20216;-68
2021/05/07 06:30:38;;;;;;;1.30;1.10;;;26.20;48.90;;;;;;5041312;28;20284;-68
2021/05/07 06:33:05;;;;;;;2.53;1.10;;;26.50;45.10;;;;;;5040710;28;20222;-68
2021/05/07 06:35:31;;;;;;;1.45;1.27;;;26.40;44.20;;;;;;5056235;28;20574;-68
2021/05/07 06:37:59;;;;;;;0.95;0.90;;;26.60;43.40;;;;;;5059273;28;20213;-68
2021/05/07 06:40:26;;;;;;;2.80;0.95;;;26.90;42.80;;;;;;5047551;28;20204;-68
2021/05/07 06:42:53;;;;;;;2.25;0.98;;;27.30;42.00;;;;;;5054033;28;20196;-68
2021/05/07 06:45:20;;;;;;;0.90;0.90;;;27.60;41.10;;;;;;5056360;28;20368;-68
2021/05/07 06:47:46;;;;;;;3.15;1.27;;;27.70;39.70;;;;;;5026277;28;20241;-68
2021/05/07 06:50:15;;;;;;;2.30;0.90;;;27.80;38.80;;;;;;5033266;28;20687;-68
2021/05/07 06:52:41;;;;;;;2.10;1.10;;;28.00;38.20;;;;;;5039709;28;20201;-68
2021/05/07 06:55:11;;;;;;;2.22;1.17;;;28.00;37.80;;;;;;5041621;28;20265;-68
2021/05/07 06:57:38;;;;;;;4.63;1.30;;;28.00;36.80;;;;;;5041588;28;20240;-68
2021/05/07 07:00:08;;;;;;;1.35;1.08;;;27.90;36.50;;;;;;5036627;28;20282;-68
2021/05/07 07:02:34;;;;;;;2.20;1.17;;;28.10;36.60;;;;;;5063483;28;21024;-68
2021/05/07 07:05:01;;;;;;;1.42;1.20;;;28.50;36.20;;;;;;5047529;28;20468;-68
2021/05/07 07:07:28;;;;;;;2.03;1.13;;;28.10;35.80;;;;;;5046246;28;20197;-69
2021/05/07 07:09:55;;;;;;;3.47;1.33;;;28.10;36.00;;;;;;5043539;28;20228;-68
2021/05/07 07:12:21;;;;;;;2.55;1.25;;;28.20;35.70;;;;;;5030973;28;20250;-68
2021/05/07 07:14:48;;;;;;;2.13;1.17;;;28.60;34.90;;;;;;5045026;28;20209;-68
2021/05/07 07:17:16;;;;;;;1.30;1.20;;;29.20;34.30;;;;;;5050920;28;20203;-69
2021/05/07 07:19:42;;;;;;;1.95;1.30;;;29.60;34.00;;;;;;5047285;28;20203;-68
2021/05/07 07:22:09;;;;;;;4.50;1.83;;;30.00;33.00;;;;;;5041370;28;20344;-68
2021/05/07 07:24:36;;;;;;;1.52;1.38;;;30.10;32.50;;;;;;5045107;28;20198;-68
2021/05/07 07:27:02;;;;;;;1.40;1.30;;;30.20;32.20;;;;;;5044186;28;20271;-68
2021/05/07 07:29:29;;;;;;;1.27;1.17;;;30.20;32.20;;;;;;5050098;28;20229;-68
2021/05/07 07:31:55;;;;;;;2.45;1.50;;;30.10;32.00;;;;;;5043880;28;20221;-68
2021/05/07 07:34:23;;;;;;;2.30;1.45;;;29.80;32.20;;;;;;5048906;28;20205;-69
2021/05/07 07:36:50;;;;;;;2.45;1.45;;;29.30;32.30;;;;;;5036669;28;20260;-68
2021/05/07 07:39:18;;;;;;;1.77;1.35;;;28.80;32.90;;;;;;5045340;28;20198;-67
2021/05/07 07:41:45;;;;;;;2.08;1.48;;;28.20;32.90;;;;;;5046399;28;20689;-68
2021/05/07 07:44:12;;;;;;;3.00;1.63;;;27.70;33.40;;;;;;5046885;28;20212;-68
2021/05/07 07:46:38;;;;;;;2.78;1.70;;;27.30;33.20;;;;;;5038047;28;20713;-68
2021/05/07 07:49:05;;;;;;;3.67;1.63;;;27.10;33.50;;;;;;5064707;28;20374;-68
2021/05/07 07:51:34;;;;;;;3.00;1.70;;;26.90;33.50;;;;;;5043736;28;20514;-68
2021/05/07 07:54:03;;;;;;;3.22;1.63;;;26.70;32.60;;;;;;5052395;28;20298;-68
2021/05/07 07:56:29;;;;;;;2.00;1.50;;;26.80;32.80;;;;;;5047829;28;20190;-68
2021/05/07 07:58:55;;;;;;;1.97;1.50;;;26.90;32.50;;;;;;5050757;28;20537;-68
2021/05/07 08:01:22;;;;;;;2.03;1.30;;;27.10;32.50;;;;;;5048813;28;20198;-67
2021/05/07 08:03:49;;;;;;;2.13;1.30;;;27.70;32.40;;;;;;5049065;28;20196;-68
2021/05/07 08:06:16;;;;;;;1.50;1.25;;;28.30;31.80;;;;;;5058759;28;20229;-68
2021/05/07 08:08:43;;;;;;;2.63;1.48;;;28.90;31.30;;;;;;5047725;28;20214;-67
2021/05/07 08:11:10;;;;;;;2.28;1.50;;;29.90;30.50;;;;;;5052796;28;20297;-68
2021/05/07 08:13:36;;;;;;;1.40;1.30;;;30.90;29.60;;;;;;5044683;28;20566;-68
2021/05/07 08:16:03;;;;;;;1.52;1.30;;;32.10;28.80;;;;;;5045170;28;20195;-68
2021/05/07 08:18:29;;;;;;;3.00;1.60;;;33.40;28.20;;;;;;5046803;28;20249;-68
2021/05/07 08:20:56;;;;;;;2.45;1.30;;;33.60;26.90;;;;;;5044578;28;20574;-68
2021/05/07 08:23:23;;;;;;;2.13;1.30;;;32.90;27.50;;;;;;5042512;28;20190;-68
2021/05/07 08:25:50;;;;;;;2.92;1.23;;;33.20;27.20;;;;;;5043247;28;20226;-68
2021/05/07 08:28:17;;;;;;;3.58;1.40;;;33.60;26.50;;;;;;5043155;28;20733;-68
2021/05/07 08:30:43;;;;;;;1.75;1.52;;;32.80;26.40;;;;;;5038679;28;20221;-67
2021/05/07 08:33:10;;;;;;;2.17;1.30;;;33.60;26.60;;;;;;5050729;28;20265;-68
2021/05/07 08:35:37;;;;;;;1.98;1.35;;;35.40;26.10;;;;;;5060396;28;20190;-68
2021/05/07 08:38:03;;;;;;;1.92;1.52;;;37.00;25.00;;;;;;5046632;28;20638;-68
2021/05/07 08:40:30;;;;;;;1.30;1.30;;;38.20;23.80;;;;;;5043160;28;20632;-67
2021/05/07 08:42:59;;;;;;;1.80;1.27;;;39.20;23.20;;;;;;5050502;28;20280;-68
2021/05/07 08:45:26;;;;;;;1.20;1.15;;;40.20;23.10;;;;;;5046332;28;20248;-68
2021/05/07 08:47:53;;;;;;;2.00;1.63;;;40.40;22.80;;;;;;5044820;28;20412;-68
2021/05/07 08:50:21;;;;;;;1.88;1.77;;;41.20;22.10;;;;;;5038146;28;20256;-68
2021/05/07 08:52:47;;;;;;;4.88;1.95;;;42.20;21.90;;;;;;5049091;28;20204;-68
2021/05/07 08:55:14;;;;;;;2.20;1.88;;;42.90;20.90;;;;;;5056015;28;20198;-68
2021/05/07 08:57:41;;;;;;;1.70;1.60;;;42.20;20.50;;;;;;5046554;28;20205;-67
2021/05/07 09:00:11;;;;;;;1.92;1.83;;;40.40;20.80;;;;;;5039730;28;20265;-68
2021/05/07 09:02:38;;;;;;;8.68;2.22;;;38.90;21.50;;;;;;5053138;28;20206;-68
2021/05/07 09:05:06;;;;;;;1.80;1.70;;;39.60;21.30;;;;;;5044491;28;20275;-68
2021/05/07 09:07:33;;;;;;;1.50;1.40;;;39.00;21.20;;;;;;5049578;28;20201;-68
2021/05/07 09:10:02;;;;;;;4.30;1.70;;;37.40;21.30;;;;;;5043914;28;20216;-68
2021/05/07 09:12:31;;;;;;;1.48;1.38;;;35.40;21.50;;;;;;5044047;28;20230;-68
2021/05/07 09:15:00;;;;;;;1.52;1.42;;;35.10;22.10;;;;;;5043800;28;20204;-67
2021/05/07 09:17:28;;;;;;;1.55;1.30;;;36.40;21.80;;;;;;5050988;28;20208;-67
2021/05/07 09:20:08;;;;;;;1.23;1.20;;;37.50;21.40;;;;;;5050250;28;20386;-67
2021/05/07 09:22:35;;;;;;;1.58;1.48;;;39.40;20.90;;;;;;5044008;28;20499;-69
2021/05/07 09:25:11;;;;;;;2.05;1.50;;;40.50;19.70;;;;;;5036825;28;20227;-66
2021/05/07 09:27:39;;;;;;;1.98;1.88;;;42.00;19.60;;;;;;5040476;28;20279;-67
2021/05/07 09:30:10;;;;;;;1.88;1.70;;;41.40;19.20;;;;;;5039816;28;20523;-68
2021/05/07 09:32:38;;;;;;;1.58;1.40;;;40.50;19.20;;;;;;5052988;28;20220;-68
2021/05/07 09:35:10;;;;;;;1.42;1.33;;;38.80;19.60;;;;;;5049580;28;20197;-69
2021/05/07 09:37:37;;;;;;;1.42;1.33;;;37.00;20.00;;;;;;5039111;28;20194;-68
2021/05/07 09:40:13;;;;;;;1.40;1.30;;;36.10;20.50;;;;;;5041680;28;20197;-68
2021/05/07 09:42:40;;;;;;;1.20;1.10;;;34.80;20.80;;;;;;5037902;28;20204;-70
2021/05/07 09:45:22;;;;;;;5.88;2.05;;;33.30;21.20;;;;;;5041420;28;20285;-71
2021/05/07 09:47:51;;;;;;;7.95;2.40;;;31.80;21.70;;;;;;5059639;28;20308;-71
2021/05/07 09:50:19;;;;;;;5.38;2.10;;;31.20;22.70;;;;;;5054130;28;20439;-71
2021/05/07 09:52:50;;;;;;;3.63;1.90;;;32.60;22.60;;;;;;5051720;28;20848;-71
2021/05/07 09:55:18;;;;;;;2.15;1.42;;;33.20;22.30;;;;;;5039131;28;20442;-70
2021/05/07 09:57:45;;;;;;;2.13;1.40;;;32.70;22.50;;;;;;5028319;28;20226;-70
2021/05/07 10:00:13;;;;;;;3.35;2.22;;;32.00;22.80;;;;;;5045493;28;20198;-71
2021/05/07 10:02:41;;;;;;;1.80;1.55;;;32.00;23.00;;;;;;5046108;28;20203;-70
2021/05/07 10:05:09;;;;;;;1.27;1.20;;;32.60;23.10;;;;;;5041652;28;20582;-71
2021/05/07 10:07:36;;;;;;;1.90;1.52;;;33.20;22.70;;;;;;5053007;28;20198;-70
2021/05/07 10:10:08;;;;;;;13.82;3.17;;;32.40;22.70;;;;;;5041693;28;20320;-70
2021/05/07 10:12:37;;;;;;;7.57;1.70;;;31.30;23.00;;;;;;5049423;28;20669;-70
2021/05/07 10:15:05;;;;;;;10.68;2.78;;;30.10;23.30;;;;;;5041366;28;20547;-70
2021/05/07 10:17:32;;;;;;;6.07;2.08;;;29.30;24.10;;;;;;5042144;28;20221;-70
2021/05/07 10:20:00;;;;;;;3.55;1.92;;;30.70;24.40;;;;;;5039803;28;20203;-70
2021/05/07 10:22:38;;;;;;;3.22;1.92;;;32.70;23.90;;;;;;5041174;28;20424;-70
2021/05/07 10:25:16;;;;;;;3.30;1.88;;;33.30;23.10;;;;;;5056094;28;20439;-70
2021/05/07 10:27:47;;;;;;;4.60;2.22;;;32.50;23.30;;;;;;5036447;28;20914;-69
2021/05/07 10:30:31;;;;;;;3.10;1.80;;;31.10;23.70;;;;;;5053478;28;20313;-68
2021/05/07 10:33:00;;;;;;;2.72;1.90;;;30.60;24.80;;;;;;5039215;28;20194;-68
2021/05/07 10:35:37;;;;;;;6.50;2.35;;;31.30;24.80;;;;;;5043807;28;20202;-68
2021/05/07 10:38:13;;;;;;;5.65;2.00;;;31.40;24.50;;;;;;5041791;28;20190;-69
2021/05/07 10:40:40;;;;;;;5.13;2.30;;;31.60;24.30;;;;;;5042886;28;20313;-69
2021/05/07 10:43:08;;;;;;;7.80;2.38;;;30.60;24.20;;;;;;5048282;28;20303;-68
2021/05/07 10:45:43;;;;;;;4.28;1.90;;;30.10;24.90;;;;;;5048555;28;20205;-68
2021/05/07 10:48:21;;;;;;;2.22;1.55;;;30.70;25.00;;;;;;5048179;28;20239;-68
2021/05/07 10:50:49;;;;;;;5.55;1.95;;;31.00;24.80;;;;;;5044117;28;20304;-68
2021/05/07 10:53:35;;;;;;;7.25;2.10;;;30.10;24.90;;;;;;5046757;28;20747;-69
2021/05/07 10:56:13;;;;;;;5.75;2.10;;;28.60;25.30;;;;;;5061723;28;20198;-69
2021/05/07 10:58:40;;;;;;;5.00;1.92;;;27.30;26.10;;;;;;5045957;28;20572;-68
2021/05/07 11:01:24;;;;;;;3.35;1.80;;;26.00;27.10;;;;;;5055059;28;20435;-68
2021/05/07 11:04:05;;;;;;;5.47;2.13;;;25.00;27.70;;;;;;5038073;28;20219;-68
2021/05/07 11:06:38;;;;;;;11.30;2.72;;;23.90;28.20;;;;;;5048857;28;20226;-69
2021/05/07 11:09:20;;;;;;;8.10;2.10;;;23.10;28.60;;;;;;5054485;28;20446;-69
2021/05/07 11:11:48;;;;;;;7.65;2.00;;;22.60;29.20;;;;;;5035110;28;20677;-69
2021/05/07 11:14:17;;;;;;;3.30;1.83;;;22.00;29.80;;;;;;5038073;28;20781;-69
2021/05/07 11:16:46;;;;;;;3.90;1.80;;;21.50;30.30;;;;;;5025360;28;20542;-68
2021/05/07 11:19:27;;;;;;;7.55;2.58;;;21.00;31.10;;;;;;5024706;28;20304;-68
2021/05/07 11:21:58;;;;;;;5.07;1.95;;;20.30;32.50;;;;;;5049132;28;20574;-68
2021/05/07 11:24:28;;;;;;;3.33;1.50;;;19.80;32.70;;;;;;5043576;28;20197;-68
2021/05/07 11:26:55;;;;;;;4.28;1.63;;;19.20;33.20;;;;;;5050595;28;20201;-68
2021/05/07 11:29:27;;;;;;;4.85;1.98;;;18.80;33.80;;;;;;5047042;28;20217;-68
2021/05/07 11:31:53;;;;;;;3.08;1.63;;;18.40;34.90;;;;;;5043015;28;20199;-68
2021/05/07 11:34:26;;;;;;;26.17;5.95;;;18.10;34.80;;;;;;5053067;28;20199;-69
2021/05/07 11:37:00;;;;;;;4.18;1.92;;;17.80;36.10;;;;;;5044963;28;20241;-68
2021/05/07 11:39:28;;;;;;;5.05;1.83;;;17.60;38.30;;;;;;5037084;28;20253;-68
2021/05/07 11:41:54;;;;;;;4.10;1.50;;;17.50;38.80;;;;;;5041956;28;20234;-68
2021/05/07 11:44:21;;;;;;;3.17;1.60;;;17.80;39.90;;;;;;5039805;28;20218;-68
2021/05/07 11:47:05;;;;;;;3.58;1.55;;;17.60;40.10;;;;;;5045374;28;20211;-68
2021/05/07 11:49:33;;;;;;;4.80;1.90;;;17.70;39.70;;;;;;5043026;28;20244;-68
2021/05/07 11:52:00;;;;;;;8.07;3.08;;;17.80;39.70;;;;;;5047602;28;20233;-69
2021/05/07 11:54:38;;;;;;;4.35;2.28;;;18.00;39.50;;;;;;5045809;28;20796;-68
2021/05/07 11:57:05;;;;;;;7.63;2.20;;;18.30;39.40;;;;;;5049720;28;20387;-69
2021/05/07 11:59:32;;;;;;;6.30;1.60;;;19.00;39.30;;;;;;5045960;28;20520;-69
2021/05/07 12:02:04;;;;;;;1.88;1.60;;;19.90;38.40;;;;;;5044500;28;20190;-69
2021/05/07 12:04:30;;;;;;;1.80;1.30;;;20.60;37.40;;;;;;5058517;28;20296;-69
2021/05/07 12:06:56;;;;;;;5.40;1.80;;;20.90;36.50;;;;;;5045267;28;20251;-69
2021/05/07 12:09:23;;;;;;;3.78;1.48;;;20.70;35.90;;;;;;5042330;28;20506;-69
2021/05/07 12:11:57;;;;;;;2.78;1.63;;;20.50;36.20;;;;;;5048652;28;20434;-69
2021/05/07 12:14:23;;;;;;;7.40;2.00;;;20.10;36.20;;;;;;5038274;28;20193;-69
2021/05/07 12:16:58;;;;;;;2.15;1.83;;;19.60;36.20;;;;;;5040114;28;20443;-70
2021/05/07 12:19:25;;;;;;;6.15;1.60;;;19.20;36.70;;;;;;5041454;28;20686;-68
2021/05/07 12:21:51;;;;;;;3.65;1.48;;;19.00;37.00;;;;;;5038928;28;20633;-70
2021/05/07 12:24:28;;;;;;;5.07;1.70;;;19.00;37.30;;;;;;5043816;28;20196;-68
2021/05/07 12:26:56;;;;;;;7.57;1.90;;;18.90;38.00;;;;;;5050040;28;20205;-69
2021/05/07 12:29:34;;;;;;;7.00;2.20;;;18.70;39.00;;;;;;5045474;28;20597;-68
2021/05/07 12:32:04;;;;;;;5.40;2.13;;;18.40;38.70;;;;;;5042285;28;20716;-70
2021/05/07 12:34:31;;;;;;;9.25;1.98;;;18.00;39.00;;;;;;5056405;28;20528;-69
2021/05/07 12:37:00;;;;;;;5.03;1.70;;;17.80;40.10;;;;;;5034484;28;20223;-69
2021/05/07 12:39:27;;;;;;;7.70;1.90;;;17.30;40.20;;;;;;5053212;28;20201;-68
2021/05/07 12:41:56;;;;;;;5.67;1.70;;;16.90;40.90;;;;;;5044102;28;20222;-69
2021/05/07 12:44:23;;;;;;;4.13;1.10;;;16.50;42.00;;;;;;5045577;28;20248;-69
2021/05/07 12:46:49;;;;;;;3.00;1.20;;;16.10;43.40;;;;;;5043802;28;20229;-68
2021/05/07 12:49:18;;;;;;;3.60;1.30;;;15.70;43.90;;;;;;5044984;28;20440;-68
2021/05/07 12:51:44;;;;;;;4.13;1.20;;;15.60;45.20;;;;;;5044719;28;20217;-68
2021/05/07 12:54:11;;;;;;;4.40;1.10;;;15.40;45.40;;;;;;5050273;28;20587;-69
2021/05/07 12:56:40;;;;;;;7.17;1.50;;;15.30;45.30;;;;;;5042454;28;20530;-68
2021/05/07 12:59:08;;;;;;;2.63;1.23;;;15.30;45.50;;;;;;5053615;28;20262;-69